createdAt,value
2022-08-05T00:00:24.207Z,56.30
2022-08-05T00:02:54.383Z,55.20
2022-08-05T00:06:02.890Z,54.78
2022-08-05T00:08:32.417Z,54.38
2022-08-05T00:11:01.475Z,53.56
2022-08-05T00:13:39.207Z,52.82
2022-08-05T00:16:14.419Z,51.96
2022-08-05T00:18:46.584Z,51.94
2022-08-05T00:21:18.532Z,52.92
2022-08-05T00:23:53.715Z,52.49
2022-08-05T00:26:36.985Z,51.69
2022-08-05T00:29:05.746Z,51.78
2022-08-05T00:31:54.400Z,51.66
2022-08-05T00:34:56.995Z,51.74
2022-08-05T00:37:23.550Z,51.17
2022-08-05T00:39:58.011Z,51.29
2022-08-05T00:42:48.242Z,51.50
2022-08-05T00:45:17.449Z,52.01
2022-08-05T00:48:05.684Z,51.69
2022-08-05T00:50:35.760Z,51.50
2022-08-05T00:53:09.539Z,51.85
2022-08-05T00:55:43.532Z,52.03
2022-08-05T00:58:14.095Z,52.63
2022-08-05T01:00:42.918Z,52.63
2022-08-05T01:03:23.201Z,52.42
2022-08-05T01:05:55.057Z,52.74
2022-08-05T01:08:30.730Z,52.80
2022-08-05T01:11:33.413Z,52.86
2022-08-05T01:14:15.766Z,53.53
2022-08-05T01:16:55.698Z,53.13
2022-08-05T01:19:46.075Z,53.65
2022-08-05T01:22:31.875Z,53.77
2022-08-05T01:25:40.923Z,53.89
2022-08-05T01:28:09.425Z,52.12
2022-08-05T01:30:49.217Z,53.26
2022-08-05T01:33:26.734Z,53.52
2022-08-05T01:35:57.764Z,53.10
2022-08-05T01:38:29.905Z,52.36
2022-08-05T01:41:03.236Z,51.90
2022-08-05T01:43:38.405Z,51.59
2022-08-05T01:46:16.563Z,51.90
2022-08-05T01:49:01.446Z,51.83
2022-08-05T01:51:52.954Z,51.95
2022-08-05T01:54:53.178Z,52.02
2022-08-05T01:58:18.799Z,52.17
2022-08-05T02:01:05.014Z,51.75
2022-08-05T02:04:19.594Z,52.38
2022-08-05T02:06:49.131Z,52.49
2022-08-05T02:09:25.874Z,52.51
2022-08-05T02:12:46.846Z,52.63
2022-08-05T02:15:44.513Z,52.24
2022-08-05T02:18:53.801Z,52.60
2022-08-05T02:21:57.465Z,52.81
2022-08-05T02:24:39.233Z,53.08
2022-08-05T02:27:14.013Z,53.50
2022-08-05T02:29:58.749Z,53.27
2022-08-05T02:32:31.804Z,53.88
2022-08-05T02:35:13.303Z,54.15
2022-08-05T02:37:47.670Z,54.15
2022-08-05T02:40:26.767Z,54.80
2022-08-05T02:42:57.963Z,54.42
2022-08-05T02:45:52.080Z,54.06
2022-08-05T02:48:19.422Z,54.12
2022-08-05T02:51:01.901Z,54.28
2022-08-05T02:53:35.903Z,54.58
2022-08-05T02:56:16.159Z,54.84
2022-08-05T02:58:52.848Z,54.78
2022-08-05T03:01:27.172Z,54.77
2022-08-05T03:04:04.262Z,54.93
2022-08-05T03:06:56.095Z,55.10
2022-08-05T03:09:37.570Z,55.90
2022-08-05T03:12:11.466Z,55.42
2022-08-05T03:14:46.186Z,55.50
2022-08-05T03:17:16.502Z,55.30
2022-08-05T03:19:45.738Z,55.43
2022-08-05T03:22:16.740Z,55.40
2022-08-05T03:25:11.724Z,55.22
2022-08-05T03:28:00.618Z,55.46
2022-08-05T03:30:33.973Z,55.66
2022-08-05T03:33:09.018Z,55.61
2022-08-05T03:35:40.945Z,55.16
2022-08-05T03:38:14.399Z,55.52
2022-08-05T03:40:50.296Z,55.51
2022-08-05T03:44:09.315Z,55.58
2022-08-05T03:46:13.281Z,55.87
2022-08-05T03:48:41.749Z,55.89
2022-08-05T03:52:38.087Z,56.33
2022-08-05T03:55:34.754Z,56.34
2022-08-05T03:57:42.584Z,56.02
2022-08-05T04:00:15.661Z,56.41
2022-08-05T04:02:57.672Z,56.05
2022-08-05T04:05:40.190Z,56.50
2022-08-05T04:08:14.634Z,56.45
2022-08-05T04:10:59.983Z,56.04
2022-08-05T04:13:50.900Z,56.13
2022-08-05T04:16:24.046Z,56.30
2022-08-05T04:18:54.241Z,56.26
2022-08-05T04:22:10.080Z,56.29
2022-08-05T04:24:18.814Z,56.01
2022-08-05T04:26:47.999Z,56.37
2022-08-05T04:29:16.246Z,56.57
2022-08-05T04:31:44.268Z,56.18
2022-08-05T04:34:18.106Z,56.18
2022-08-05T04:37:00.272Z,56.04
2022-08-05T04:39:29.609Z,55.57
2022-08-05T04:41:57.833Z,55.77
2022-08-05T04:44:30.047Z,55.43
2022-08-05T04:47:09.608Z,55.50
2022-08-05T04:50:02.816Z,55.18
2022-08-05T04:52:29.248Z,55.22
2022-08-05T04:55:13.799Z,55.26
2022-08-05T04:57:54.115Z,55.15
2022-08-05T05:00:24.261Z,55.20
2022-08-05T05:02:52.846Z,55.61
2022-08-05T05:05:28.324Z,55.62
2022-08-05T05:08:02.285Z,55.89
2022-08-05T05:10:47.276Z,55.75
2022-08-05T05:13:24.859Z,56.64
2022-08-05T05:15:56.169Z,57.35
2022-08-05T05:18:33.748Z,56.77
2022-08-05T05:21:05.555Z,56.02
2022-08-05T05:23:39.431Z,55.96
2022-08-05T05:26:28.805Z,55.38
2022-08-05T05:29:14.486Z,56.49
2022-08-05T05:31:42.840Z,56.48
2022-08-05T05:34:15.479Z,56.88
2022-08-05T05:36:45.712Z,56.13
2022-08-05T05:39:16.144Z,54.66
2022-08-05T05:41:54.539Z,54.44
2022-08-05T05:44:36.542Z,54.27
2022-08-05T05:47:21.725Z,55.15
2022-08-05T05:50:01.321Z,54.49
2022-08-05T05:52:37.998Z,54.31
2022-08-05T05:55:25.680Z,53.86
2022-08-05T05:58:14.518Z,54.36
2022-08-05T06:00:46.448Z,54.64
2022-08-05T06:03:53.808Z,54.89
2022-08-05T06:06:03.432Z,54.19
2022-08-05T06:08:34.669Z,54.56
2022-08-05T06:11:13.575Z,54.45
2022-08-05T06:13:50.165Z,55.24
2022-08-05T06:16:29.756Z,54.49
2022-08-05T06:19:05.512Z,54.87
2022-08-05T06:21:38.313Z,54.83
2022-08-05T06:24:11.937Z,54.99
2022-08-05T06:26:51.983Z,55.28
2022-08-05T06:29:42.948Z,54.66
2022-08-05T06:32:25.445Z,54.41
2022-08-05T06:34:59.212Z,54.58
2022-08-05T06:37:56.788Z,53.73
2022-08-05T06:40:20.717Z,54.01
2022-08-05T06:42:52.175Z,54.57
2022-08-05T06:46:02.891Z,53.80
2022-08-05T06:48:54.761Z,53.71
2022-08-05T06:51:00.610Z,54.09
2022-08-05T06:53:29.452Z,53.98
2022-08-05T06:56:03.932Z,54.07
2022-08-05T06:58:36.385Z,53.98
2022-08-05T07:01:07.265Z,54.04
2022-08-05T07:03:35.826Z,54.39
2022-08-05T07:06:14.144Z,54.96
2022-08-05T07:08:47.487Z,54.89
2022-08-05T07:11:22.338Z,55.41
2022-08-05T07:14:28.958Z,55.87
2022-08-05T07:18:00.302Z,55.69
2022-08-05T07:20:31.359Z,56.29
2022-08-05T07:22:43.563Z,56.22
2022-08-05T07:25:54.307Z,56.34
2022-08-05T07:28:09.645Z,57.50
2022-08-05T07:30:40.379Z,58.47
2022-08-05T07:33:16.388Z,57.68
2022-08-05T07:36:03.870Z,58.59
2022-08-05T07:38:43.242Z,60.28
2022-08-05T07:42:12.940Z,58.85
2022-08-05T07:44:19.145Z,58.15
2022-08-05T07:46:49.607Z,57.33
2022-08-05T07:49:19.112Z,56.89
2022-08-05T07:51:54.336Z,56.71
2022-08-05T07:54:30.789Z,56.32
2022-08-05T07:57:17.815Z,56.29
2022-08-05T08:00:00.972Z,55.61
2022-08-05T08:02:30.872Z,55.56
2022-08-05T08:05:00.420Z,55.11
2022-08-05T08:07:39.511Z,55.78
2022-08-05T08:10:21.034Z,55.35
2022-08-05T08:12:50.903Z,54.75
2022-08-05T08:16:34.454Z,54.82
2022-08-05T08:18:09.918Z,54.27
2022-08-05T08:21:03.349Z,53.75
2022-08-05T08:24:02.356Z,53.41
2022-08-05T08:26:26.987Z,52.80
2022-08-05T08:28:59.761Z,53.94
2022-08-05T08:31:45.712Z,54.63
2022-08-05T08:34:17.033Z,54.79
2022-08-05T08:36:50.631Z,54.35
2022-08-05T08:39:24.223Z,54.35
2022-08-05T08:41:59.872Z,54.43
2022-08-05T08:45:23.663Z,54.83
2022-08-05T08:48:05.437Z,54.44
2022-08-05T08:50:31.708Z,54.64
2022-08-05T08:53:22.519Z,54.62
2022-08-05T08:56:05.279Z,54.52
2022-08-05T08:58:43.897Z,54.49
2022-08-05T09:01:18.355Z,55.29
2022-08-05T09:03:52.874Z,54.74
2022-08-05T09:06:30.595Z,54.77
2022-08-05T09:09:01.630Z,54.56
2022-08-05T09:11:51.549Z,55.67
2022-08-05T09:14:56.691Z,55.01
2022-08-05T09:17:41.242Z,56.29
2022-08-05T09:20:02.469Z,56.24
2022-08-05T09:23:07.923Z,56.53
2022-08-05T09:26:02.469Z,56.26
2022-08-05T09:28:34.312Z,56.28
2022-08-05T09:31:44.230Z,55.76
2022-08-05T09:34:13.038Z,55.02
2022-08-05T09:36:56.119Z,54.91
2022-08-05T09:39:45.889Z,54.99
2022-08-05T09:42:24.026Z,54.79
2022-08-05T09:45:03.318Z,54.05
2022-08-05T09:47:55.048Z,53.76
2022-08-05T09:50:44.804Z,54.29
2022-08-05T09:53:22.987Z,53.93
2022-08-05T09:56:04.745Z,54.24
2022-08-05T09:58:41.881Z,54.65
2022-08-05T10:01:31.856Z,54.68
2022-08-05T10:04:16.043Z,55.39
2022-08-05T10:06:59.387Z,55.71
2022-08-05T10:09:45.165Z,54.99
2022-08-05T10:12:18.959Z,55.60
2022-08-05T10:15:26.137Z,55.63
2022-08-05T10:18:07.930Z,55.22
2022-08-05T10:20:44.346Z,55.65
2022-08-05T10:23:55.646Z,55.82
2022-08-05T10:26:14.291Z,56.19
2022-08-05T10:28:47.727Z,56.47
2022-08-05T10:32:49.238Z,57.23
2022-08-05T10:34:11.056Z,57.51
2022-08-05T10:40:03.661Z,56.96
2022-08-05T10:42:43.773Z,56.97
2022-08-05T10:45:23.821Z,57.30
2022-08-05T10:48:57.027Z,57.49
2022-08-05T10:51:53.227Z,56.67
2022-08-05T10:54:56.498Z,57.55
2022-08-05T10:57:32.367Z,58.14
2022-08-05T11:00:23.042Z,57.65
2022-08-05T11:03:25.348Z,57.96
2022-08-05T11:06:30.839Z,57.91
2022-08-05T11:09:17.464Z,57.37
2022-08-05T11:11:53.187Z,57.74
2022-08-05T11:15:01.001Z,57.07
2022-08-05T11:17:59.417Z,57.29
2022-08-05T11:20:41.443Z,57.87
2022-08-05T11:24:03.010Z,57.61
2022-08-05T11:26:28.610Z,58.27
2022-08-05T11:29:13.080Z,57.81
2022-08-05T11:31:54.492Z,58.03
2022-08-05T11:34:38.968Z,58.24
2022-08-05T11:38:45.358Z,58.12
2022-08-05T11:40:02.789Z,58.44
2022-08-05T11:42:38.116Z,58.71
2022-08-05T11:45:14.521Z,58.41
2022-08-05T11:47:54.669Z,58.54
2022-08-05T11:50:25.144Z,59.07
2022-08-05T11:52:57.900Z,59.07
2022-08-05T11:55:31.946Z,58.85
2022-08-05T11:58:10.720Z,58.81
2022-08-05T12:00:44.486Z,59.34
2022-08-05T12:03:31.420Z,58.93
2022-08-05T12:06:03.248Z,59.04
2022-08-05T12:08:35.150Z,59.46
2022-08-05T12:11:21.695Z,60.07
2022-08-05T12:14:05.110Z,59.58
2022-08-05T12:16:38.396Z,59.32
2022-08-05T12:20:27.690Z,59.54
2022-08-05T12:21:59.793Z,59.02
2022-08-05T12:24:30.133Z,59.44
2022-08-05T12:27:09.757Z,59.50
2022-08-05T12:30:15.192Z,59.69
2022-08-05T12:32:52.074Z,59.13
2022-08-05T12:35:22.256Z,59.56
2022-08-05T12:37:53.214Z,59.34
2022-08-05T12:40:26.674Z,59.35
2022-08-05T12:42:57.029Z,59.80
2022-08-05T12:45:48.420Z,58.88
2022-08-05T12:48:17.563Z,59.20
2022-08-05T12:52:14.159Z,59.53
2022-08-05T12:54:27.671Z,59.84
2022-08-05T12:57:02.734Z,60.52
2022-08-05T13:01:57.017Z,60.39
2022-08-05T13:03:08.165Z,59.72
2022-08-05T13:05:43.709Z,59.98
2022-08-05T13:08:34.107Z,60.16
2022-08-05T13:11:05.726Z,60.26
2022-08-05T13:14:05.103Z,60.38
2022-08-05T13:16:28.297Z,60.59
2022-08-05T13:18:59.870Z,60.68
2022-08-05T13:21:37.968Z,59.86
2022-08-05T13:24:27.645Z,60.17
2022-08-05T13:27:11.230Z,59.75
2022-08-05T13:30:32.387Z,59.62
2022-08-05T13:32:36.325Z,59.18
2022-08-05T13:35:10.642Z,59.34
2022-08-05T13:37:38.845Z,59.90
2022-08-05T13:40:16.525Z,60.37
2022-08-05T13:42:48.103Z,59.89
2022-08-05T13:45:23.477Z,59.91
2022-08-05T13:48:09.867Z,60.33
2022-08-05T13:55:41.619Z,59.11
2022-08-05T13:58:30.700Z,58.52
2022-08-05T14:01:06.005Z,58.94
2022-08-05T14:03:36.077Z,58.70
2022-08-05T14:06:26.678Z,58.10
2022-08-05T14:09:08.357Z,57.65
2022-08-05T14:12:04.241Z,57.91
2022-08-05T14:14:33.808Z,57.85
2022-08-05T14:17:26.944Z,57.34
2022-08-05T14:20:02.334Z,57.82
2022-08-05T14:22:35.786Z,57.52
2022-08-05T14:25:21.932Z,57.33
2022-08-05T14:27:51.561Z,57.04
2022-08-05T14:30:26.531Z,57.28
2022-08-05T14:33:02.156Z,56.87
2022-08-05T14:35:37.075Z,56.30
2022-08-05T14:38:06.017Z,56.15
2022-08-05T14:40:57.143Z,55.74
2022-08-05T14:44:01.594Z,55.52
2022-08-05T14:46:28.874Z,55.14
2022-08-05T14:49:12.127Z,55.25
2022-08-05T14:51:42.741Z,56.20
2022-08-05T14:54:28.785Z,55.92
2022-08-05T14:57:05.178Z,55.96
2022-08-05T14:59:41.030Z,56.49
2022-08-05T15:02:16.539Z,58.34
2022-08-05T15:04:47.808Z,57.84
2022-08-05T15:08:06.346Z,58.97
2022-08-05T15:10:09.698Z,58.90
2022-08-05T15:13:00.484Z,59.48
2022-08-05T15:15:55.454Z,61.15
2022-08-05T15:18:21.101Z,47.90
2022-08-05T15:20:49.867Z,49.36
2022-08-05T15:23:18.878Z,46.32
2022-08-05T15:25:52.265Z,46.68
2022-08-05T15:28:27.993Z,50.91
2022-08-05T15:30:59.746Z,54.42
2022-08-05T15:34:05.325Z,55.94
2022-08-05T15:36:27.556Z,58.11
2022-08-05T15:40:41.570Z,62.47
2022-08-05T15:41:55.655Z,62.82
2022-08-05T15:44:24.668Z,64.49
2022-08-05T15:46:54.015Z,64.28
2022-08-05T15:49:48.106Z,64.60
2022-08-05T15:52:29.451Z,63.23
2022-08-05T15:55:02.656Z,63.63
2022-08-05T15:57:34.555Z,63.08
2022-08-05T16:00:07.577Z,62.30
2022-08-05T16:02:35.488Z,63.22
2022-08-05T16:05:28.622Z,64.39
2022-08-05T16:08:20.322Z,65.01
2022-08-05T16:10:48.730Z,63.34
2022-08-05T16:13:19.263Z,64.56
2022-08-05T16:15:55.331Z,65.27
2022-08-05T16:18:28.109Z,63.63
2022-08-05T16:20:57.624Z,62.98
2022-08-05T16:23:25.446Z,63.72
2022-08-05T16:26:07.529Z,64.12
2022-08-05T16:28:37.713Z,65.74
2022-08-05T16:31:10.513Z,65.84
2022-08-05T16:33:41.645Z,67.23
2022-08-05T16:36:15.102Z,65.42
2022-08-05T16:38:55.200Z,66.75
2022-08-05T16:42:15.813Z,65.08
2022-08-05T16:44:14.830Z,65.70
2022-08-05T16:46:55.893Z,66.00
2022-08-05T16:49:27.347Z,67.09
2022-08-05T16:51:57.118Z,67.25
2022-08-05T16:54:30.353Z,66.81
2022-08-05T16:57:03.469Z,65.98
2022-08-05T16:59:34.595Z,66.97
2022-08-05T17:02:25.865Z,66.89
2022-08-05T17:04:56.705Z,66.34
2022-08-05T17:07:43.492Z,66.91
2022-08-05T17:10:16.636Z,67.48
2022-08-05T17:12:51.749Z,67.53
2022-08-05T17:15:21.493Z,67.68
2022-08-05T17:17:55.015Z,67.32
2022-08-05T17:20:25.070Z,67.52
2022-08-05T17:22:55.852Z,66.83
2022-08-05T17:25:34.086Z,66.96
2022-08-05T17:28:09.313Z,67.13
2022-08-05T17:30:42.490Z,66.25
2022-08-05T17:33:19.953Z,66.53
2022-08-05T17:36:09.042Z,66.87
2022-08-05T17:38:36.288Z,66.20
2022-08-05T17:41:04.376Z,65.80
2022-08-05T17:43:53.013Z,65.67
2022-08-05T17:46:21.774Z,65.66
2022-08-05T17:48:51.253Z,65.56
2022-08-05T17:51:22.305Z,64.75
2022-08-05T17:53:50.864Z,64.91
2022-08-05T17:56:23.171Z,65.56
2022-08-05T17:58:56.989Z,64.51
2022-08-05T18:01:28.075Z,64.29
2022-08-05T18:04:21.155Z,65.09
2022-08-05T18:06:55.856Z,65.39
2022-08-05T18:09:58.735Z,66.15
2022-08-05T18:12:22.183Z,66.57
2022-08-05T18:14:55.177Z,66.90
2022-08-05T18:17:58.712Z,67.69
2022-08-05T18:20:19.763Z,66.57
2022-08-05T18:23:11.425Z,66.26
2022-08-05T18:25:45.269Z,65.80
2022-08-05T18:28:18.172Z,64.11
2022-08-05T18:30:51.675Z,64.30
2022-08-05T18:33:25.982Z,63.06
2022-08-05T18:36:11.977Z,63.20
2022-08-05T18:38:46.567Z,62.83
2022-08-05T18:42:00.563Z,61.53
2022-08-05T18:44:05.840Z,60.89
2022-08-05T18:46:38.640Z,61.26
2022-08-05T18:49:30.340Z,60.63
2022-08-05T18:52:32.879Z,60.83
2022-08-05T18:55:03.303Z,61.37
2022-08-05T18:57:42.965Z,60.49
2022-08-05T19:00:20.512Z,60.47
2022-08-05T19:02:49.351Z,61.33
2022-08-05T19:06:11.823Z,60.72
2022-08-05T19:08:13.469Z,60.37
2022-08-05T19:10:41.492Z,60.47
2022-08-05T19:13:12.310Z,61.44
2022-08-05T19:15:57.083Z,59.55
2022-08-05T19:18:33.190Z,59.78
2022-08-05T19:21:01.064Z,60.47
2022-08-05T19:24:07.387Z,59.88
2022-08-05T19:26:30.614Z,60.23
2022-08-05T19:28:59.208Z,60.66
2022-08-05T19:31:27.767Z,60.64
2022-08-05T19:34:02.020Z,59.83
2022-08-05T19:36:36.137Z,59.71
2022-08-05T19:39:07.645Z,59.70
2022-08-05T19:42:07.070Z,59.56
2022-08-05T19:44:45.022Z,58.62
2022-08-05T19:47:58.713Z,58.39
2022-08-05T19:50:34.538Z,58.02
2022-08-05T19:54:04.707Z,57.53
2022-08-05T19:56:34.801Z,57.27
2022-08-05T19:59:54.948Z,57.93
2022-08-05T20:02:14.872Z,58.82
2022-08-05T20:04:54.796Z,58.14
2022-08-05T20:07:47.123Z,58.30
2022-08-05T20:10:26.443Z,58.34
2022-08-05T20:12:55.744Z,58.66
2022-08-05T20:15:52.114Z,58.93
2022-08-05T20:18:33.664Z,59.23
2022-08-05T20:21:07.781Z,59.70
2022-08-05T20:23:58.755Z,59.90
2022-08-05T20:26:40.263Z,60.17
2022-08-05T20:29:27.373Z,60.29
2022-08-05T20:32:02.413Z,60.42
2022-08-05T20:34:34.980Z,59.79
2022-08-05T20:37:17.803Z,60.67
2022-08-05T20:39:53.142Z,61.87
2022-08-05T20:42:28.205Z,61.88
2022-08-05T20:44:56.976Z,62.04
2022-08-05T20:47:32.172Z,62.94
2022-08-05T20:50:07.488Z,63.13
2022-08-05T20:52:41.562Z,63.42
2022-08-05T20:55:56.341Z,63.53
2022-08-05T20:57:59.848Z,63.37
2022-08-05T21:00:51.861Z,63.51
2022-08-05T21:03:20.512Z,64.18
2022-08-05T21:05:54.517Z,63.99
2022-08-05T21:08:35.849Z,64.10
2022-08-05T21:11:51.641Z,64.50
2022-08-05T21:14:05.118Z,63.86
2022-08-05T21:16:34.535Z,62.64
2022-08-05T21:19:03.816Z,63.08
2022-08-05T21:21:50.559Z,62.90
2022-08-05T21:24:25.103Z,62.01
2022-08-05T21:26:58.807Z,61.75
2022-08-05T21:29:31.961Z,61.65
2022-08-05T21:32:03.683Z,61.70
2022-08-05T21:34:32.938Z,62.05
2022-08-05T21:37:05.766Z,61.49
2022-08-05T21:39:34.506Z,61.83
2022-08-05T21:42:03.785Z,61.35
2022-08-05T21:44:36.550Z,59.79
2022-08-05T21:47:17.320Z,59.87
2022-08-05T21:50:01.063Z,58.27
2022-08-05T21:52:30.370Z,58.60
2022-08-05T21:55:06.542Z,59.02
2022-08-05T21:57:42.754Z,58.96
2022-08-05T22:00:19.528Z,59.58
2022-08-05T22:02:54.044Z,59.92
2022-08-05T22:05:27.229Z,59.31
2022-08-05T22:08:07.016Z,59.93
2022-08-05T22:10:53.732Z,60.17
2022-08-05T22:14:05.897Z,59.60
2022-08-05T22:16:41.080Z,59.64
2022-08-05T22:19:57.230Z,59.89
2022-08-05T22:21:54.868Z,59.83
2022-08-05T22:24:52.376Z,60.48
2022-08-05T22:28:10.224Z,60.30
2022-08-05T22:30:56.762Z,60.54
2022-08-05T22:33:55.613Z,60.93
2022-08-05T22:36:19.567Z,61.03
2022-08-05T22:38:55.968Z,60.83
2022-08-05T22:42:09.344Z,60.88
2022-08-05T22:44:53.625Z,60.42
2022-08-05T22:47:35.082Z,60.07
2022-08-05T22:50:20.364Z,59.65
2022-08-05T22:52:52.730Z,58.66
2022-08-05T22:55:27.423Z,58.65
2022-08-05T22:58:28.160Z,59.73
2022-08-05T23:01:12.946Z,59.49
2022-08-05T23:04:14.604Z,59.89
2022-08-05T23:06:44.835Z,59.31
2022-08-05T23:09:27.843Z,60.05
2022-08-05T23:12:04.746Z,59.52
2022-08-05T23:14:32.860Z,59.59
2022-08-05T23:17:24.584Z,60.26
2022-08-05T23:20:03.017Z,59.75
2022-08-05T23:22:31.136Z,59.86
2022-08-05T23:24:59.221Z,60.11
2022-08-05T23:27:28.769Z,60.18
2022-08-05T23:30:11.131Z,60.08
2022-08-05T23:32:44.998Z,60.23
2022-08-05T23:35:20.964Z,60.87
2022-08-05T23:37:49.546Z,61.00
2022-08-05T23:40:18.010Z,61.24
2022-08-05T23:42:55.730Z,61.28
2022-08-05T23:45:23.953Z,61.12
2022-08-05T23:47:53.811Z,61.09
2022-08-05T23:50:29.273Z,61.39
2022-08-05T23:52:58.876Z,61.01
2022-08-05T23:55:30.917Z,61.11
2022-08-05T23:57:59.028Z,60.82
